To NAV CANADA Home Page Login to a new session Search on AWWS site Feedback and Comments Disclaimer Vers la page française équivalente Tips FAQ What's new on the site To the Forecasts and Observations / NOTAM section To "File a Flight Plan" website Publications and other links Update of the User's profile FIC Telephone Numbers My Weather Data Folder Route Weather Data Regional Weather Data Local Weather Data To the Forecasts and Observations / NOTAM section
Request Generated 04/30/2017 at 05:03:28 UTC . Weather information available at that time is displayed.

METAR/TAF

MAYO/YT    

METAR CYMA 300500Z VRB02KT 20SM FEW045 FEW100 FEW250 06/01 A2980 RMK
SC2AC1CI1 AC TR CI TR SLP117=
METAR CYMA 300400Z 00000KT 20SM FEW045 SCT100 SCT250 09/M01 A2980 RMK
CU1AC2CI1 CI TR SLP115=
METAR CYMA 300300Z 24003KT 210V270 20SM FEW045TCU SCT095 09/M01 A2981
RMK TCU1AC3 SLP118=

TAF CYMA 292338Z 3000/3012 VRB03KT P6SM SCT050 BKN100 TEMPO 3000/3004
P6SM -SHRA BKN050 OVC100
FM300400 VRB03KT P6SM SCT050
FM301000 VRB03KT P6SM SCT012
RMK NXT FCST BY 300600Z=
Your time UTC time
Weather data provided by Environment Canada and NAV CANADA